Airfield :
LOGIN :

Register | Disclaimer

   EN    FR    IT 

 










Legend :    VFR   Marginal VFR   IFR   Intensive IFR   Very Intensive IFR
Visi :
Ceiling :
>= 8 km
>= 3000ft
5 to 8 km
1000 to 3000 ft
1500m to 5 km
500 to 1000 ft
800 to 1500m
200 to 500 ft
< 800m
< 200 ft
Symbols :   Thunderstorms  Fog  Heavy snow  Heavy precipitations  Wind > 20 kt
SIGMETs :     Misc.  Thunderstorms  Icing  Turbulence  Mountain Waves  Volcanic Ashes






- Airport Elevation : 300 ft
- IATA code : MLA


LMML - Malta Luqa

CURRENT METAR :
  • 030315Z 19013KT 170V230 9999 FEW048 18/10 Q1008 NOSIG

EXPIRED METARs :
  • 030245Z 20012KT 160V240 9999 FEW048 18/10 Q1008 NOSIG
  • 030215Z AUTO 19014KT 150V220 CAVOK 18/09 Q1008 NOSIG
  • 030145Z 20013KT 160V230 9999 FEW047 18/09 Q1009 NOSIG
  • 030115Z 19012KT CAVOK 18/09 Q1009 NOSIG

TAF TAF LMML
Valid from the 03 at 00:00 until the 04 at 00:00 UTC


022300Z 0300/0324 21015KT 9999 SCT040
TEMPO 0306/0324 8000 SHRA BKN020TCU
PROB30
TEMPO 0309/0318 VRB20G30KT 4000 TSRA TSRAGS BKN015CB
BECMG 0312/0315 29020G30KT



MET'MAP, your aeronautical weather chart ! - Copyright ORBIFLY December 2007 - Disclaimer

ORBIFLY MET'MAP TEAM :

Programming & Development : Alexandra Zaïnal
Concept & original design : Baudouin d'Aumeries
Assistance for programming : Marc-Olivier Méhu
Technical & hardware support : Manuel Goepfert

Contact : metmap@orbifly.com




SOURCES & CREDITS :

   NOAA